createdAt,value
2023-12-01T00:01:09.087Z,-1.03
2023-12-01T00:03:35.790Z,-0.96
2023-12-01T00:06:02.465Z,-0.92
2023-12-01T00:08:29.074Z,-0.94
2023-12-01T00:10:55.617Z,-0.91
2023-12-01T00:13:22.170Z,-0.93
2023-12-01T00:15:48.775Z,-0.90
2023-12-01T00:18:15.430Z,-0.96
2023-12-01T00:20:44.330Z,-0.98
2023-12-01T00:23:10.929Z,-0.95
2023-12-01T00:25:37.573Z,-0.93
2023-12-01T00:28:04.130Z,-0.88
2023-12-01T00:30:33.539Z,-0.95
2023-12-01T00:33:01.328Z,-1.00
2023-12-01T00:35:27.966Z,-1.01
2023-12-01T00:37:54.474Z,-1.03
2023-12-01T00:40:21.311Z,-1.03
2023-12-01T00:42:47.890Z,-1.09
2023-12-01T00:45:16.626Z,-1.08
2023-12-01T00:47:43.306Z,-1.12
2023-12-01T00:50:10.402Z,-1.12
2023-12-01T00:52:37.061Z,-1.15
2023-12-01T00:55:04.530Z,-1.12
2023-12-01T00:57:31.104Z,-1.06
2023-12-01T00:59:57.691Z,-1.08
2023-12-01T01:02:24.229Z,-1.08
2023-12-01T01:04:50.876Z,-1.08
2023-12-01T01:07:17.441Z,-1.15
2023-12-01T01:09:44.106Z,-1.14
2023-12-01T01:12:10.700Z,-1.17
2023-12-01T01:14:37.278Z,-1.12
2023-12-01T01:17:04.027Z,-1.08
2023-12-01T01:19:30.635Z,-1.04
2023-12-01T01:21:57.996Z,-1.02
2023-12-01T01:24:24.736Z,-1.06
2023-12-01T01:26:51.442Z,-1.05
2023-12-01T01:29:18.077Z,-0.99
2023-12-01T01:31:44.701Z,-1.05
2023-12-01T01:34:11.673Z,-1.03
2023-12-01T01:36:38.324Z,-0.96
2023-12-01T01:39:04.942Z,-0.94
2023-12-01T01:41:31.546Z,-0.92
2023-12-01T01:43:58.705Z,-0.92
2023-12-01T01:46:25.693Z,-0.86
2023-12-01T01:48:52.515Z,-0.87
2023-12-01T01:51:20.453Z,-0.85
2023-12-01T01:53:47.321Z,-0.84
2023-12-01T01:56:16.203Z,-0.90
2023-12-01T01:58:43.168Z,-0.94
2023-12-01T02:01:09.867Z,-0.90
2023-12-01T02:03:36.698Z,-0.86
2023-12-01T02:06:09.498Z,-0.86
2023-12-01T02:08:36.663Z,-0.86
2023-12-01T02:11:03.620Z,-0.82
2023-12-01T02:13:30.343Z,-0.83
2023-12-01T02:15:56.922Z,-0.80
2023-12-01T02:18:32.014Z,-0.76
2023-12-01T02:20:59.822Z,-0.74
2023-12-01T02:23:27.741Z,-0.72
2023-12-01T02:25:54.994Z,-0.73
2023-12-01T02:28:21.738Z,-0.72
2023-12-01T02:30:54.264Z,-0.71
2023-12-01T02:33:21.574Z,-0.71
2023-12-01T02:35:49.225Z,-0.70
2023-12-01T02:38:16.540Z,-0.67
2023-12-01T02:40:50.716Z,-0.64
2023-12-01T02:43:19.183Z,-0.69
2023-12-01T02:45:46.497Z,-0.62
2023-12-01T02:48:13.314Z,-0.59
2023-12-01T02:50:39.954Z,-0.62
2023-12-01T02:53:06.922Z,-0.67
2023-12-01T02:55:33.896Z,-0.72
2023-12-01T02:58:00.935Z,-0.71
2023-12-01T03:00:27.645Z,-0.67
2023-12-01T03:02:54.268Z,-0.65
2023-12-01T03:05:21.331Z,-0.62
2023-12-01T03:07:49.045Z,-0.59
2023-12-01T03:10:16.627Z,-0.57
2023-12-01T03:12:44.956Z,-0.59
2023-12-01T03:15:13.460Z,-0.59
2023-12-01T03:17:41.369Z,-0.55
2023-12-01T03:20:12.012Z,-0.59
2023-12-01T03:22:40.151Z,-0.53
2023-12-01T03:25:13.684Z,-0.56
2023-12-01T03:27:43.693Z,-0.62
2023-12-01T03:30:15.342Z,-0.59
2023-12-01T03:32:46.919Z,-0.57
2023-12-01T03:35:21.965Z,-0.56
2023-12-01T03:37:50.077Z,-0.52
2023-12-01T03:40:17.000Z,-0.52
2023-12-01T03:42:49.075Z,-0.53
2023-12-01T03:45:17.271Z,-0.55
2023-12-01T03:47:45.599Z,-0.53
2023-12-01T03:50:15.138Z,-0.55
2023-12-01T03:52:43.625Z,-0.53
2023-12-01T03:55:11.765Z,-0.48
2023-12-01T03:57:39.351Z,-0.50
2023-12-01T04:00:14.619Z,-0.48
2023-12-01T04:02:43.114Z,-0.48
2023-12-01T04:05:20.973Z,-0.46
2023-12-01T04:07:51.658Z,-0.46
2023-12-01T04:10:19.594Z,-0.46
2023-12-01T04:12:47.011Z,-0.45
2023-12-01T04:15:19.072Z,-0.44
2023-12-01T04:17:48.036Z,-0.43
2023-12-01T04:20:23.348Z,-0.43
2023-12-01T04:23:01.270Z,-0.44
2023-12-01T04:25:28.803Z,-0.45
2023-12-01T04:27:56.823Z,-0.43
2023-12-01T04:30:24.865Z,-0.42
2023-12-01T04:32:55.274Z,-0.43
2023-12-01T04:35:24.511Z,-0.48
2023-12-01T04:37:51.468Z,-0.48
2023-12-01T04:40:18.613Z,-0.44
2023-12-01T04:42:47.052Z,-0.41
2023-12-01T04:45:17.030Z,-0.43
2023-12-01T04:47:45.156Z,-0.45
2023-12-01T04:50:14.432Z,-0.41
2023-12-01T04:52:53.987Z,-0.41
2023-12-01T04:55:21.993Z,-0.41
2023-12-01T04:57:49.254Z,-0.41
2023-12-01T05:00:22.021Z,-0.42
2023-12-01T05:03:02.956Z,-0.44
2023-12-01T05:05:31.675Z,-0.39
2023-12-01T05:08:00.759Z,-0.37
2023-12-01T05:10:29.011Z,-0.40
2023-12-01T05:12:56.849Z,-0.36
2023-12-01T05:15:27.847Z,-0.33
2023-12-01T05:17:59.984Z,-0.37
2023-12-01T05:20:28.840Z,-0.39
2023-12-01T05:23:00.719Z,-0.36
2023-12-01T05:25:29.099Z,-0.35
2023-12-01T05:28:00.803Z,-0.36
2023-12-01T05:30:29.175Z,-0.35
2023-12-01T05:32:57.413Z,-0.35
2023-12-01T05:35:24.093Z,-0.33
2023-12-01T05:37:52.530Z,-0.34
2023-12-01T05:40:30.157Z,-0.31
2023-12-01T05:42:58.843Z,-0.31
2023-12-01T05:45:27.832Z,-0.34
2023-12-01T05:47:56.234Z,-0.32
2023-12-01T05:50:27.751Z,-0.29
2023-12-01T05:52:56.525Z,-0.32
2023-12-01T05:55:25.309Z,-0.33
2023-12-01T05:57:54.604Z,-0.32
2023-12-01T06:00:23.382Z,-0.30
2023-12-01T06:02:53.973Z,-0.34
2023-12-01T06:05:22.140Z,-0.38
2023-12-01T06:07:59.599Z,-0.35
2023-12-01T06:10:27.917Z,-0.39
2023-12-01T06:12:55.268Z,-0.39
2023-12-01T06:15:22.890Z,-0.45
2023-12-01T06:17:51.589Z,-0.37
2023-12-01T06:20:21.584Z,-0.39
2023-12-01T06:23:08.657Z,-0.37
2023-12-01T06:25:38.379Z,-0.37
2023-12-01T06:28:05.602Z,-0.37
2023-12-01T06:30:38.001Z,-0.37
2023-12-01T06:33:08.261Z,-0.34
2023-12-01T06:35:35.395Z,-0.33
2023-12-01T06:38:02.137Z,-0.35
2023-12-01T06:40:28.693Z,-0.37
2023-12-01T06:42:56.691Z,-0.37
2023-12-01T06:45:29.347Z,-0.36
2023-12-01T06:48:00.240Z,-0.32
2023-12-01T06:50:28.112Z,-0.34
2023-12-01T06:52:55.181Z,-0.31
2023-12-01T06:55:22.128Z,-0.33
2023-12-01T06:57:50.053Z,-0.36
2023-12-01T07:00:32.444Z,-0.36
2023-12-01T07:03:11.517Z,-0.35
2023-12-01T07:05:40.634Z,-0.39
2023-12-01T07:08:13.596Z,-0.39
2023-12-01T07:10:40.793Z,-0.39
2023-12-01T07:13:07.428Z,-0.40
2023-12-01T07:15:34.117Z,-0.42
2023-12-01T07:18:00.961Z,-0.45
2023-12-01T07:20:27.605Z,-0.47
2023-12-01T07:22:55.283Z,-0.53
2023-12-01T07:25:23.710Z,-0.53
2023-12-01T07:28:07.044Z,-0.58
2023-12-01T07:30:33.902Z,-0.66
2023-12-01T07:33:01.984Z,-0.63
2023-12-01T07:35:28.840Z,-0.66
2023-12-01T07:37:55.903Z,-0.69
2023-12-01T07:40:23.809Z,-0.71
2023-12-01T07:42:56.216Z,-0.69
2023-12-01T07:45:23.454Z,-0.68
2023-12-01T07:47:56.258Z,-0.68
2023-12-01T07:50:23.951Z,-0.65
2023-12-01T07:52:51.787Z,-0.67
2023-12-01T07:55:22.366Z,-0.63
2023-12-01T07:57:49.586Z,-0.67
2023-12-01T08:00:17.479Z,-0.67
2023-12-01T08:02:55.211Z,-0.67
2023-12-01T08:05:24.024Z,-0.67
2023-12-01T08:07:56.643Z,-0.64
2023-12-01T08:10:26.348Z,-0.60
2023-12-01T08:12:58.439Z,-0.68
2023-12-01T08:15:27.821Z,-0.67
2023-12-01T08:17:55.023Z,-0.66
2023-12-01T08:20:21.740Z,-0.55
2023-12-01T08:22:50.984Z,-0.57
2023-12-01T08:25:18.565Z,-0.58
2023-12-01T08:27:45.167Z,-0.60
2023-12-01T08:30:18.576Z,-0.60
2023-12-01T08:32:48.407Z,-0.58
2023-12-01T08:35:16.672Z,-0.55
2023-12-01T08:37:43.594Z,-0.49
2023-12-01T08:40:13.571Z,-0.47
2023-12-01T08:42:42.034Z,-0.48
2023-12-01T08:45:09.928Z,-0.50
2023-12-01T08:47:36.939Z,-0.64
2023-12-01T08:50:08.945Z,-0.68
2023-12-01T08:52:36.607Z,-0.73
2023-12-01T08:55:03.991Z,-0.72
2023-12-01T08:57:31.768Z,-0.77
2023-12-01T08:59:58.322Z,-0.86
2023-12-01T09:02:25.261Z,-0.93
2023-12-01T09:04:52.223Z,-0.97
2023-12-01T09:07:18.804Z,-0.88
2023-12-01T09:09:45.376Z,-0.94
2023-12-01T09:12:11.939Z,-0.94
2023-12-01T09:14:39.102Z,-0.91
2023-12-01T09:17:05.719Z,-0.91
2023-12-01T09:19:32.364Z,-0.84
2023-12-01T09:21:59.305Z,-0.77
2023-12-01T09:24:26.077Z,-0.67
2023-12-01T09:26:54.128Z,-0.59
2023-12-01T09:29:20.753Z,-0.49
2023-12-01T09:31:48.569Z,-0.36
2023-12-01T09:34:15.251Z,-0.34
2023-12-01T09:36:45.168Z,-0.33
2023-12-01T09:39:11.991Z,-0.21
2023-12-01T09:41:40.296Z,-0.13
2023-12-01T09:44:13.410Z,0.11
2023-12-01T09:46:41.307Z,0.08
2023-12-01T09:49:07.998Z,0.19
2023-12-01T09:51:37.487Z,0.16
2023-12-01T09:54:05.315Z,0.18
2023-12-01T09:56:33.055Z,0.20
2023-12-01T09:59:00.394Z,0.31
2023-12-01T10:01:27.649Z,0.25
2023-12-01T10:03:54.453Z,0.25
2023-12-01T10:06:21.467Z,0.22
2023-12-01T10:08:50.604Z,0.23
2023-12-01T10:11:25.866Z,0.15
2023-12-01T10:13:53.163Z,0.09
2023-12-01T10:16:20.970Z,0.15
2023-12-01T10:18:58.642Z,0.12
2023-12-01T10:21:54.689Z,0.13
2023-12-01T10:24:22.564Z,0.18
2023-12-01T10:26:51.381Z,0.03
2023-12-01T10:29:32.030Z,-0.02
2023-12-01T10:32:12.739Z,-0.11
2023-12-01T10:34:39.576Z,-0.11
2023-12-01T10:37:06.606Z,-0.08
2023-12-01T10:39:33.891Z,-0.02
2023-12-01T10:42:04.073Z,-0.04
2023-12-01T10:44:32.915Z,-0.01
2023-12-01T10:47:00.476Z,-0.11
2023-12-01T10:49:28.403Z,-0.04
2023-12-01T10:52:00.633Z,-0.01
2023-12-01T10:54:28.843Z,0.06
2023-12-01T10:57:17.421Z,0.08
2023-12-01T10:59:59.621Z,0.01
2023-12-01T11:02:27.638Z,0.08
2023-12-01T11:04:55.267Z,0.16
2023-12-01T11:07:43.611Z,0.11
2023-12-01T11:10:26.846Z,0.05
2023-12-01T11:13:19.499Z,0.08
2023-12-01T11:15:49.904Z,0.08
2023-12-01T11:18:17.499Z,0.07
2023-12-01T11:20:46.322Z,0.05
2023-12-01T11:23:16.419Z,-0.08
2023-12-01T11:25:48.246Z,-0.28
2023-12-01T11:28:31.168Z,-0.33
2023-12-01T11:31:08.947Z,-0.46
2023-12-01T11:33:40.513Z,-0.53
2023-12-01T11:36:48.893Z,-0.68
2023-12-01T11:39:22.056Z,-0.70
2023-12-01T11:42:10.550Z,-0.72
2023-12-01T11:44:39.807Z,-0.74
2023-12-01T11:47:10.030Z,-0.84
2023-12-01T11:49:40.678Z,-0.79
2023-12-01T11:52:16.126Z,-0.76
2023-12-01T11:54:43.779Z,-0.65
2023-12-01T11:57:17.418Z,-0.49
2023-12-01T11:59:44.990Z,-0.33
2023-12-01T12:02:11.653Z,-0.23
2023-12-01T12:04:39.291Z,-0.23
2023-12-01T12:07:06.937Z,-0.17
2023-12-01T12:09:36.304Z,-0.05
2023-12-01T12:12:06.402Z,0.05
2023-12-01T12:14:36.184Z,0.14
2023-12-01T12:17:03.243Z,0.13
2023-12-01T12:19:40.908Z,0.21
2023-12-01T12:22:07.822Z,-0.04
2023-12-01T12:24:34.925Z,0.08
2023-12-01T12:27:01.748Z,0.17
2023-12-01T12:29:28.400Z,0.05
2023-12-01T12:31:55.184Z,-0.17
2023-12-01T12:34:24.477Z,-0.32
2023-12-01T12:36:52.436Z,-0.24
2023-12-01T12:39:23.757Z,-0.16
2023-12-01T12:41:54.253Z,-0.12
2023-12-01T12:44:21.723Z,-0.04
2023-12-01T12:47:01.648Z,0.04
2023-12-01T12:49:31.768Z,0.08
2023-12-01T12:52:00.407Z,0.02
2023-12-01T12:54:27.639Z,-0.03
2023-12-01T12:56:54.518Z,-0.08
2023-12-01T12:59:21.365Z,-0.02
2023-12-01T13:01:48.036Z,0.02
2023-12-01T13:04:14.729Z,-0.06
2023-12-01T13:06:48.780Z,0.05
2023-12-01T13:09:17.247Z,0.16
2023-12-01T13:11:44.605Z,0.22
2023-12-01T13:14:13.822Z,0.16
2023-12-01T13:16:51.792Z,0.23
2023-12-01T13:19:22.871Z,0.32
2023-12-01T13:21:53.033Z,0.45
2023-12-01T13:24:22.372Z,0.62
2023-12-01T13:26:49.218Z,0.70
2023-12-01T13:29:16.031Z,0.68
2023-12-01T13:31:42.880Z,0.46
2023-12-01T13:34:09.647Z,0.43
2023-12-01T13:36:36.357Z,0.28
2023-12-01T13:39:03.536Z,0.28
2023-12-01T13:41:30.508Z,0.25
2023-12-01T13:43:57.225Z,0.14
2023-12-01T13:46:23.922Z,-0.03
2023-12-01T13:48:50.546Z,-0.07
2023-12-01T13:51:17.260Z,-0.08
2023-12-01T13:53:43.882Z,-0.16
2023-12-01T13:56:11.745Z,-0.21
2023-12-01T13:58:42.519Z,-0.30
2023-12-01T14:01:10.576Z,-0.26
2023-12-01T14:03:37.395Z,-0.19
2023-12-01T14:06:04.393Z,-0.11
2023-12-01T14:08:30.999Z,-0.09
2023-12-01T14:10:57.549Z,-0.13
2023-12-01T14:13:24.126Z,-0.19
2023-12-01T14:15:50.767Z,-0.20
2023-12-01T14:18:17.414Z,-0.22
2023-12-01T14:20:44.088Z,-0.27
2023-12-01T14:23:10.626Z,-0.29
2023-12-01T14:25:37.158Z,-0.36
2023-12-01T14:28:03.801Z,-0.42
2023-12-01T14:30:30.526Z,-0.46
2023-12-01T14:32:57.652Z,-0.55
2023-12-01T14:35:24.203Z,-0.63
2023-12-01T14:37:51.684Z,-0.69
2023-12-01T14:40:18.318Z,-0.75
2023-12-01T14:42:45.684Z,-0.79
2023-12-01T14:45:12.457Z,-0.88
2023-12-01T14:47:39.203Z,-0.93
2023-12-01T14:50:06.736Z,-0.96
2023-12-01T14:52:33.717Z,-1.10
2023-12-01T14:55:00.353Z,-1.15
2023-12-01T14:57:27.033Z,-1.20
2023-12-01T14:59:53.651Z,-1.25
2023-12-01T15:02:20.350Z,-1.28
2023-12-01T15:04:46.999Z,-1.33
2023-12-01T15:07:13.527Z,-1.38
2023-12-01T15:09:40.068Z,-1.42
2023-12-01T15:12:07.130Z,-1.47
2023-12-01T15:14:33.693Z,-1.53
2023-12-01T15:17:00.683Z,-1.54
2023-12-01T15:19:27.498Z,-1.57
2023-12-01T15:21:59.764Z,-1.57
2023-12-01T15:24:26.849Z,-1.61
2023-12-01T15:26:56.872Z,-1.68
2023-12-01T15:29:24.442Z,-1.74
2023-12-01T15:31:51.273Z,-1.79
2023-12-01T15:34:17.859Z,-1.82
2023-12-01T15:36:44.468Z,-1.85
2023-12-01T15:39:12.398Z,-1.97
2023-12-01T15:41:39.822Z,-1.97
2023-12-01T15:44:06.452Z,-2.01
2023-12-01T15:46:33.321Z,-2.00
2023-12-01T15:49:00.102Z,-2.02
2023-12-01T15:51:26.738Z,-2.09
2023-12-01T15:53:53.432Z,-2.14
2023-12-01T15:56:20.022Z,-2.18
2023-12-01T15:58:46.505Z,-2.21
2023-12-01T16:01:13.213Z,-2.24
2023-12-01T16:03:40.049Z,-2.23
2023-12-01T16:06:07.105Z,-2.31
2023-12-01T16:08:33.701Z,-2.31
2023-12-01T16:11:00.249Z,-2.33
2023-12-01T16:13:26.823Z,-2.34
2023-12-01T16:15:53.374Z,-2.39
2023-12-01T16:18:24.676Z,-2.42
2023-12-01T16:20:52.851Z,-2.46
2023-12-01T16:23:20.542Z,-2.47
2023-12-01T16:25:48.337Z,-2.52
2023-12-01T16:28:14.961Z,-2.52
2023-12-01T16:30:41.513Z,-2.52
2023-12-01T16:33:08.832Z,-2.58
2023-12-01T16:35:35.673Z,-2.59
2023-12-01T16:38:04.865Z,-2.57
2023-12-01T16:40:31.383Z,-2.66
2023-12-01T16:42:58.208Z,-2.67
2023-12-01T16:45:24.820Z,-2.64
2023-12-01T16:47:52.430Z,-2.66
2023-12-01T16:50:19.185Z,-2.69
2023-12-01T16:52:45.872Z,-2.70
2023-12-01T16:55:13.562Z,-2.77
2023-12-01T16:57:40.524Z,-2.80
2023-12-01T17:00:08.232Z,-2.79
2023-12-01T17:02:35.064Z,-2.87
2023-12-01T17:05:01.727Z,-2.95
2023-12-01T17:07:28.297Z,-2.92
2023-12-01T17:09:54.828Z,-2.92
2023-12-01T17:12:21.552Z,-2.97
2023-12-01T17:14:48.311Z,-2.97
2023-12-01T17:17:14.939Z,-3.03
2023-12-01T17:19:42.033Z,-3.13
2023-12-01T17:22:08.859Z,-3.13
2023-12-01T17:24:40.350Z,-3.12
2023-12-01T17:27:06.872Z,-3.09
2023-12-01T17:29:33.422Z,-3.10
2023-12-01T17:32:01.675Z,-3.10
2023-12-01T17:34:28.355Z,-3.05
2023-12-01T17:36:54.972Z,-3.03
2023-12-01T17:39:21.941Z,-2.93
2023-12-01T17:41:48.562Z,-2.89
2023-12-01T17:44:15.146Z,-2.86
2023-12-01T17:46:41.680Z,-2.83
2023-12-01T17:49:08.204Z,-2.75
2023-12-01T17:51:34.850Z,-2.72
2023-12-01T17:54:01.504Z,-2.74
2023-12-01T17:56:28.080Z,-2.69
2023-12-01T17:58:55.991Z,-2.67
2023-12-01T18:01:24.427Z,-2.69
2023-12-01T18:03:51.233Z,-2.65
2023-12-01T18:06:18.049Z,-2.62
2023-12-01T18:08:44.654Z,-2.56
2023-12-01T18:11:11.420Z,-2.55
2023-12-01T18:13:38.624Z,-2.54
2023-12-01T18:16:05.708Z,-2.53
2023-12-01T18:18:33.576Z,-2.52
2023-12-01T18:21:04.688Z,-2.49
2023-12-01T18:23:31.749Z,-2.46
2023-12-01T18:25:58.523Z,-2.46
2023-12-01T18:28:26.178Z,-2.46
2023-12-01T18:30:53.096Z,-2.45
2023-12-01T18:33:19.795Z,-2.45
2023-12-01T18:35:47.092Z,-2.50
2023-12-01T18:38:17.346Z,-2.49
2023-12-01T18:40:46.902Z,-2.49
2023-12-01T18:43:13.957Z,-2.51
2023-12-01T18:45:41.243Z,-2.49
2023-12-01T18:48:08.208Z,-2.43
2023-12-01T18:50:36.531Z,-2.51
2023-12-01T18:53:03.841Z,-2.56
2023-12-01T18:55:30.700Z,-2.57
2023-12-01T18:57:57.337Z,-2.63
2023-12-01T19:00:24.092Z,-2.61
2023-12-01T19:02:50.797Z,-2.65
2023-12-01T19:05:18.801Z,-2.66
2023-12-01T19:07:46.385Z,-2.65
2023-12-01T19:10:13.155Z,-2.63
2023-12-01T19:12:39.702Z,-2.61
2023-12-01T19:15:07.454Z,-2.59
2023-12-01T19:17:34.282Z,-2.53
2023-12-01T19:20:00.873Z,-2.51
2023-12-01T19:22:27.459Z,-2.53
2023-12-01T19:24:54.004Z,-2.53
2023-12-01T19:27:20.716Z,-2.51
2023-12-01T19:29:47.381Z,-2.53
2023-12-01T19:32:13.991Z,-2.55
2023-12-01T19:34:41.783Z,-2.57
2023-12-01T19:37:08.335Z,-2.61
2023-12-01T19:39:35.060Z,-2.60
2023-12-01T19:42:01.833Z,-2.62
2023-12-01T19:44:28.369Z,-2.67
2023-12-01T19:46:55.141Z,-2.69
2023-12-01T19:49:21.907Z,-2.72
2023-12-01T19:51:48.719Z,-2.77
2023-12-01T19:54:15.410Z,-2.77
2023-12-01T19:56:46.087Z,-2.78
2023-12-01T19:59:12.665Z,-2.76
2023-12-01T20:01:44.337Z,-2.74
2023-12-01T20:04:10.890Z,-2.70
2023-12-01T20:06:37.502Z,-2.74
2023-12-01T20:09:04.328Z,-2.76
2023-12-01T20:11:30.912Z,-2.80
2023-12-01T20:13:57.437Z,-2.83
2023-12-01T20:16:23.979Z,-2.83
2023-12-01T20:18:50.743Z,-2.82
2023-12-01T20:21:18.752Z,-2.83
2023-12-01T20:23:45.375Z,-2.81
2023-12-01T20:26:12.026Z,-2.80
2023-12-01T20:28:38.550Z,-2.82
2023-12-01T20:31:05.301Z,-2.82
2023-12-01T20:33:31.948Z,-2.88
2023-12-01T20:35:58.582Z,-2.90
2023-12-01T20:38:25.144Z,-2.94
2023-12-01T20:40:52.903Z,-3.02
2023-12-01T20:43:20.032Z,-3.07
2023-12-01T20:45:47.175Z,-3.08
2023-12-01T20:48:13.770Z,-3.10
2023-12-01T20:50:40.331Z,-3.03
2023-12-01T20:53:07.636Z,-2.98
2023-12-01T20:55:34.200Z,-2.93
2023-12-01T20:58:00.790Z,-2.87
2023-12-01T21:00:28.836Z,-2.84
2023-12-01T21:02:55.589Z,-2.82
2023-12-01T21:05:22.566Z,-2.86
2023-12-01T21:07:49.406Z,-2.86
2023-12-01T21:10:16.220Z,-2.86
2023-12-01T21:12:42.954Z,-2.91
2023-12-01T21:15:10.260Z,-2.83
2023-12-01T21:17:37.370Z,-2.82
2023-12-01T21:20:05.145Z,-2.88
2023-12-01T21:22:31.706Z,-2.85
2023-12-01T21:24:58.253Z,-2.81
2023-12-01T21:27:25.077Z,-2.78
2023-12-01T21:29:54.092Z,-2.76
2023-12-01T21:32:22.263Z,-2.76
2023-12-01T21:34:49.014Z,-2.78
2023-12-01T21:37:16.865Z,-2.80
2023-12-01T21:39:45.409Z,-2.76
2023-12-01T21:42:12.144Z,-2.72
2023-12-01T21:44:38.728Z,-2.76
2023-12-01T21:47:05.845Z,-2.74
2023-12-01T21:49:32.509Z,-2.72
2023-12-01T21:51:59.287Z,-2.67
2023-12-01T21:54:25.893Z,-2.65
2023-12-01T21:56:52.582Z,-2.64
2023-12-01T21:59:19.198Z,-2.71
2023-12-01T22:01:45.738Z,-2.66
2023-12-01T22:04:12.325Z,-2.66
2023-12-01T22:06:38.866Z,-2.65
2023-12-01T22:09:06.496Z,-2.62
2023-12-01T22:11:33.109Z,-2.67
2023-12-01T22:13:59.624Z,-2.64
2023-12-01T22:16:30.239Z,-2.58
2023-12-01T22:18:57.371Z,-2.58
2023-12-01T22:21:27.244Z,-2.53
2023-12-01T22:23:53.845Z,-2.51
2023-12-01T22:26:20.408Z,-2.46
2023-12-01T22:28:47.460Z,-2.45
2023-12-01T22:31:14.038Z,-2.49
2023-12-01T22:33:40.578Z,-2.42
2023-12-01T22:36:07.435Z,-2.41
2023-12-01T22:38:33.966Z,-2.38
2023-12-01T22:41:00.636Z,-2.41
2023-12-01T22:43:27.149Z,-2.40
2023-12-01T22:45:53.665Z,-2.40
2023-12-01T22:48:20.509Z,-2.37
2023-12-01T22:50:47.119Z,-2.36
2023-12-01T22:53:13.788Z,-2.40
2023-12-01T22:55:40.422Z,-2.34
2023-12-01T22:58:07.001Z,-2.33
2023-12-01T23:00:34.527Z,-2.35
2023-12-01T23:03:01.583Z,-2.34
2023-12-01T23:05:28.667Z,-2.32
2023-12-01T23:07:56.423Z,-2.33
2023-12-01T23:10:23.155Z,-2.34
2023-12-01T23:12:49.707Z,-2.33
2023-12-01T23:15:16.338Z,-2.34
2023-12-01T23:17:43.040Z,-2.36
2023-12-01T23:20:24.195Z,-2.32
2023-12-01T23:22:50.786Z,-2.31
2023-12-01T23:25:17.538Z,-2.35
2023-12-01T23:27:44.179Z,-2.29
2023-12-01T23:30:11.338Z,-2.27
2023-12-01T23:32:38.585Z,-2.23
2023-12-01T23:35:07.268Z,-2.23
2023-12-01T23:37:33.893Z,-2.19
2023-12-01T23:40:00.508Z,-2.25
2023-12-01T23:42:27.220Z,-2.22
2023-12-01T23:44:53.754Z,-2.18
2023-12-01T23:47:20.284Z,-2.19
2023-12-01T23:49:46.923Z,-2.19
2023-12-01T23:52:13.720Z,-2.21
2023-12-01T23:54:40.286Z,-2.24
2023-12-01T23:57:06.908Z,-2.23
2023-12-01T23:59:33.469Z,-2.21
